createdAt,value
2022-07-26T00:01:46.895Z,1.35
2022-07-26T00:04:13.683Z,1.40
2022-07-26T00:06:40.427Z,1.73
2022-07-26T00:09:07.353Z,1.58
2022-07-26T00:11:34.292Z,1.40
2022-07-26T00:14:05.542Z,1.60
2022-07-26T00:16:32.789Z,1.50
2022-07-26T00:19:00.047Z,1.50
2022-07-26T00:21:26.964Z,1.50
2022-07-26T00:23:53.763Z,1.60
2022-07-26T00:26:20.831Z,1.35
2022-07-26T00:28:47.587Z,1.70
2022-07-26T00:31:14.614Z,1.55
2022-07-26T00:33:41.325Z,1.42
2022-07-26T00:36:08.211Z,1.42
2022-07-26T00:38:34.902Z,1.30
2022-07-26T00:41:01.890Z,1.50
2022-07-26T00:43:28.576Z,1.50
2022-07-26T00:45:55.423Z,1.48
2022-07-26T00:48:22.436Z,1.55
2022-07-26T00:50:49.455Z,1.48
2022-07-26T00:53:20.158Z,1.25
2022-07-26T00:55:51.166Z,1.38
2022-07-26T00:58:18.532Z,1.50
2022-07-26T01:00:45.522Z,1.50
2022-07-26T01:03:12.297Z,1.60
2022-07-26T01:05:39.126Z,1.58
2022-07-26T01:08:05.755Z,1.30
2022-07-26T01:10:32.478Z,1.60
2022-07-26T01:12:59.324Z,1.48
2022-07-26T01:15:26.045Z,1.35
2022-07-26T01:17:52.849Z,1.45
2022-07-26T01:20:19.612Z,1.30
2022-07-26T01:22:46.363Z,1.30
2022-07-26T01:25:13.123Z,1.60
2022-07-26T01:27:40.026Z,1.48
2022-07-26T01:30:10.195Z,1.33
2022-07-26T01:32:37.634Z,1.40
2022-07-26T01:35:05.924Z,1.60
2022-07-26T01:37:32.539Z,1.48
2022-07-26T01:39:59.187Z,1.30
2022-07-26T01:42:25.887Z,1.27
2022-07-26T01:44:52.640Z,1.48
2022-07-26T01:47:19.345Z,1.55
2022-07-26T01:49:46.002Z,1.60
2022-07-26T01:52:12.878Z,1.60
2022-07-26T01:54:40.147Z,1.50
2022-07-26T01:57:06.874Z,1.38
2022-07-26T01:59:33.491Z,1.33
2022-07-26T02:02:00.678Z,1.80
2022-07-26T02:04:46.213Z,1.65
2022-07-26T02:07:13.466Z,1.35
2022-07-26T02:09:40.529Z,1.50
2022-07-26T02:12:07.632Z,1.30
2022-07-26T02:14:34.392Z,1.30
2022-07-26T02:17:01.198Z,1.35
2022-07-26T02:19:28.584Z,1.27
2022-07-26T02:21:55.229Z,1.40
2022-07-26T02:24:22.218Z,1.20
2022-07-26T02:26:49.028Z,1.30
2022-07-26T02:29:15.719Z,1.20
2022-07-26T02:31:42.421Z,1.30
2022-07-26T02:34:15.358Z,1.58
2022-07-26T02:36:41.986Z,1.63
2022-07-26T02:39:08.802Z,1.40
2022-07-26T02:41:35.427Z,1.40
2022-07-26T02:44:02.116Z,1.20
2022-07-26T02:46:28.765Z,1.83
2022-07-26T02:48:55.517Z,1.70
2022-07-26T02:51:22.327Z,1.33
2022-07-26T02:53:49.060Z,1.23
2022-07-26T02:56:15.917Z,1.55
2022-07-26T02:58:42.840Z,1.30
2022-07-26T03:01:10.075Z,1.42
2022-07-26T03:03:36.988Z,1.27
2022-07-26T03:06:05.506Z,1.05
2022-07-26T03:08:32.812Z,1.25
2022-07-26T03:11:00.632Z,1.02
2022-07-26T03:13:27.402Z,1.13
2022-07-26T03:15:54.261Z,1.33
2022-07-26T03:18:20.940Z,1.08
2022-07-26T03:20:48.136Z,1.17
2022-07-26T03:23:15.053Z,1.17
2022-07-26T03:25:41.976Z,1.05
2022-07-26T03:28:08.782Z,1.33
2022-07-26T03:30:35.846Z,1.30
2022-07-26T03:33:02.490Z,0.70
2022-07-26T03:35:29.271Z,0.93
2022-07-26T03:37:55.976Z,1.00
2022-07-26T03:40:22.895Z,1.10
2022-07-26T03:42:49.611Z,1.00
2022-07-26T03:45:16.430Z,1.05
2022-07-26T03:47:43.359Z,0.95
2022-07-26T03:50:11.123Z,1.05
2022-07-26T03:52:38.351Z,0.93
2022-07-26T03:55:26.196Z,0.98
2022-07-26T03:57:53.558Z,1.23
2022-07-26T04:00:20.353Z,1.20
2022-07-26T04:02:47.215Z,1.02
2022-07-26T04:05:13.974Z,1.08
2022-07-26T04:07:52.999Z,0.98
2022-07-26T04:10:23.662Z,1.10
2022-07-26T04:12:50.496Z,1.30
2022-07-26T04:15:18.979Z,1.27
2022-07-26T04:17:46.203Z,0.82
2022-07-26T04:20:12.989Z,0.95
2022-07-26T04:22:40.681Z,1.08
2022-07-26T04:25:08.292Z,1.13
2022-07-26T04:27:35.714Z,1.08
2022-07-26T04:30:02.377Z,0.90
2022-07-26T04:32:29.640Z,0.80
2022-07-26T04:34:56.240Z,1.10
2022-07-26T04:37:23.018Z,0.98
2022-07-26T04:39:54.877Z,1.30
2022-07-26T04:42:21.916Z,0.80
2022-07-26T04:44:48.647Z,0.80
2022-07-26T04:47:15.444Z,1.10
2022-07-26T04:49:42.224Z,0.90
2022-07-26T04:52:08.854Z,1.00
2022-07-26T04:54:35.539Z,0.80
2022-07-26T04:57:02.193Z,0.88
2022-07-26T04:59:28.804Z,0.77
2022-07-26T05:02:00.103Z,0.82
2022-07-26T05:04:27.019Z,0.80
2022-07-26T05:06:53.674Z,0.82
2022-07-26T05:09:20.288Z,1.13
2022-07-26T05:11:47.130Z,1.15
2022-07-26T05:14:13.741Z,0.93
2022-07-26T05:16:44.362Z,0.90
2022-07-26T05:19:11.614Z,0.95
2022-07-26T05:21:38.270Z,0.80
2022-07-26T05:24:05.373Z,0.68
2022-07-26T05:26:34.860Z,0.70
2022-07-26T05:29:01.713Z,1.00
2022-07-26T05:31:28.473Z,0.93
2022-07-26T05:33:55.526Z,0.90
2022-07-26T05:36:22.389Z,1.08
2022-07-26T05:38:49.307Z,0.82
2022-07-26T05:41:17.004Z,1.25
2022-07-26T05:43:43.801Z,1.00
2022-07-26T05:46:12.001Z,1.00
2022-07-26T05:48:39.690Z,1.13
2022-07-26T05:51:06.509Z,0.90
2022-07-26T05:53:33.936Z,1.02
2022-07-26T05:56:00.790Z,1.10
2022-07-26T05:58:27.650Z,1.00
2022-07-26T06:00:54.700Z,1.05
2022-07-26T06:03:24.233Z,1.05
2022-07-26T06:05:52.796Z,1.00
2022-07-26T06:08:19.936Z,1.20
2022-07-26T06:10:48.119Z,1.08
2022-07-26T06:13:15.091Z,1.20
2022-07-26T06:15:42.983Z,0.95
2022-07-26T06:18:09.997Z,0.98
2022-07-26T06:20:40.738Z,1.20
2022-07-26T06:23:07.407Z,1.02
2022-07-26T06:25:34.454Z,1.05
2022-07-26T06:28:05.176Z,1.10
2022-07-26T06:30:32.274Z,1.30
2022-07-26T06:32:59.031Z,1.05
2022-07-26T06:35:29.158Z,1.15
2022-07-26T06:37:55.777Z,1.02
2022-07-26T06:40:22.758Z,1.20
2022-07-26T06:42:49.572Z,1.17
2022-07-26T06:45:17.112Z,1.10
2022-07-26T06:47:43.755Z,0.90
2022-07-26T06:50:10.855Z,1.13
2022-07-26T06:52:37.534Z,1.30
2022-07-26T06:55:05.151Z,1.45
2022-07-26T06:57:31.922Z,1.00
2022-07-26T06:59:58.533Z,1.10
2022-07-26T07:02:26.317Z,1.00
2022-07-26T07:04:53.740Z,1.00
2022-07-26T07:07:21.555Z,1.20
2022-07-26T07:09:48.632Z,1.13
2022-07-26T07:12:15.663Z,1.20
2022-07-26T07:14:42.500Z,1.20
2022-07-26T07:17:12.125Z,1.20
2022-07-26T07:19:41.771Z,1.55
2022-07-26T07:22:11.972Z,1.15
2022-07-26T07:24:40.055Z,1.30
2022-07-26T07:27:06.759Z,1.00
2022-07-26T07:29:33.889Z,1.02
2022-07-26T07:32:03.347Z,1.42
2022-07-26T07:34:30.354Z,1.00
2022-07-26T07:36:57.466Z,1.27
2022-07-26T07:39:24.356Z,1.10
2022-07-26T07:42:01.226Z,0.85
2022-07-26T07:44:28.162Z,1.00
2022-07-26T07:46:54.927Z,1.10
2022-07-26T07:49:23.173Z,1.02
2022-07-26T07:51:49.964Z,1.20
2022-07-26T07:54:16.788Z,0.80
2022-07-26T07:56:43.670Z,0.90
2022-07-26T07:59:11.150Z,1.13
2022-07-26T08:01:40.217Z,0.90
2022-07-26T08:04:08.743Z,0.90
2022-07-26T08:06:36.363Z,1.00
2022-07-26T08:09:05.738Z,0.85
2022-07-26T08:11:34.211Z,1.15
2022-07-26T08:14:01.572Z,0.90
2022-07-26T08:16:28.675Z,0.90
2022-07-26T08:18:57.204Z,1.13
2022-07-26T08:21:27.578Z,1.07
2022-07-26T08:23:56.364Z,1.10
2022-07-26T08:26:23.240Z,1.00
2022-07-26T08:28:59.935Z,1.10
2022-07-26T08:31:28.851Z,1.02
2022-07-26T08:33:55.905Z,1.23
2022-07-26T08:36:22.780Z,1.40
2022-07-26T08:38:49.554Z,0.90
2022-07-26T08:41:17.983Z,1.27
2022-07-26T08:43:51.536Z,1.40
2022-07-26T08:46:25.921Z,1.30
2022-07-26T08:48:55.281Z,1.33
2022-07-26T08:51:23.956Z,1.40
2022-07-26T08:53:55.472Z,1.58
2022-07-26T08:56:24.724Z,1.10
2022-07-26T08:58:51.450Z,1.20
2022-07-26T09:01:18.381Z,1.20
2022-07-26T09:03:45.646Z,1.30
2022-07-26T09:06:26.288Z,1.10
2022-07-26T09:09:10.457Z,1.13
2022-07-26T09:11:40.059Z,1.70
2022-07-26T09:14:06.773Z,1.00
2022-07-26T09:16:38.646Z,1.10
2022-07-26T09:19:19.344Z,1.15
2022-07-26T09:21:49.204Z,1.00
2022-07-26T09:24:39.029Z,1.20
2022-07-26T09:27:07.307Z,1.27
2022-07-26T09:29:53.264Z,1.15
2022-07-26T09:32:26.349Z,1.20
2022-07-26T09:35:24.035Z,1.30
2022-07-26T09:37:57.122Z,0.95
2022-07-26T09:40:31.727Z,0.88
2022-07-26T09:43:04.932Z,1.20
2022-07-26T09:45:34.159Z,0.90
2022-07-26T09:48:02.147Z,0.98
2022-07-26T09:50:31.316Z,1.10
2022-07-26T09:53:07.527Z,1.00
2022-07-26T09:55:56.415Z,1.10
2022-07-26T09:58:24.176Z,0.90
2022-07-26T10:00:51.257Z,0.80
2022-07-26T10:03:18.984Z,0.75
2022-07-26T10:05:46.450Z,1.00
2022-07-26T10:08:13.873Z,1.08
2022-07-26T10:10:44.170Z,1.27
2022-07-26T10:13:11.422Z,1.35
2022-07-26T10:15:49.569Z,0.93
2022-07-26T10:18:39.196Z,0.93
2022-07-26T10:21:29.687Z,0.90
2022-07-26T10:23:58.553Z,0.90
2022-07-26T10:26:31.321Z,0.98
2022-07-26T10:29:16.357Z,1.20
2022-07-26T10:31:47.387Z,0.88
2022-07-26T10:34:38.082Z,1.02
2022-07-26T10:37:08.723Z,0.95
2022-07-26T10:39:36.189Z,0.93
2022-07-26T10:42:10.319Z,1.30
2022-07-26T10:44:42.391Z,1.02
2022-07-26T10:47:09.143Z,1.20
2022-07-26T10:49:40.245Z,1.30
2022-07-26T10:52:20.744Z,0.93
2022-07-26T10:54:56.741Z,0.85
2022-07-26T10:57:29.373Z,1.27
2022-07-26T10:59:57.578Z,1.20
2022-07-26T11:02:32.090Z,1.35
2022-07-26T11:05:04.599Z,1.10
2022-07-26T11:07:31.573Z,1.10
2022-07-26T11:09:59.413Z,1.20
2022-07-26T11:12:26.465Z,1.20
2022-07-26T11:14:54.519Z,1.20
2022-07-26T11:17:30.253Z,1.40
2022-07-26T11:19:57.563Z,1.15
2022-07-26T11:22:34.433Z,1.10
2022-07-26T11:25:02.733Z,1.02
2022-07-26T11:27:29.618Z,0.93
2022-07-26T11:30:01.521Z,1.10
2022-07-26T11:32:28.853Z,1.33
2022-07-26T11:35:04.355Z,0.98
2022-07-26T11:37:31.710Z,1.10
2022-07-26T11:39:58.572Z,1.67
2022-07-26T11:42:25.836Z,1.30
2022-07-26T11:44:53.859Z,0.80
2022-07-26T11:47:25.556Z,0.80
2022-07-26T11:50:11.720Z,0.95
2022-07-26T11:52:40.308Z,0.90
2022-07-26T11:55:07.849Z,0.90
2022-07-26T11:57:34.654Z,0.95
2022-07-26T12:00:01.650Z,0.90
2022-07-26T12:02:38.285Z,1.13
2022-07-26T12:05:20.179Z,1.08
2022-07-26T12:08:03.027Z,1.30
2022-07-26T12:10:30.389Z,1.00
2022-07-26T12:13:07.215Z,1.23
2022-07-26T12:15:51.775Z,0.90
2022-07-26T12:18:26.836Z,1.13
2022-07-26T12:21:07.551Z,1.50
2022-07-26T12:23:41.668Z,1.00
2022-07-26T12:26:31.507Z,1.30
2022-07-26T12:29:18.661Z,1.10
2022-07-26T12:31:45.476Z,1.00
2022-07-26T12:34:12.537Z,1.00
2022-07-26T12:36:39.437Z,0.90
2022-07-26T12:39:06.097Z,1.00
2022-07-26T12:41:34.891Z,0.88
2022-07-26T12:44:01.822Z,0.88
2022-07-26T12:46:32.285Z,1.00
2022-07-26T12:49:00.564Z,0.95
2022-07-26T12:51:27.606Z,0.85
2022-07-26T12:53:54.724Z,1.00
2022-07-26T12:56:21.431Z,0.80
2022-07-26T12:58:48.286Z,0.70
2022-07-26T13:01:15.552Z,0.95
2022-07-26T13:03:42.357Z,0.70
2022-07-26T13:06:09.212Z,0.88
2022-07-26T13:08:36.058Z,1.00
2022-07-26T13:11:02.871Z,0.90
2022-07-26T13:13:29.821Z,1.00
2022-07-26T13:15:56.533Z,0.82
2022-07-26T13:18:23.238Z,1.10
2022-07-26T13:20:50.026Z,0.82
2022-07-26T13:23:21.652Z,1.05
2022-07-26T13:25:49.804Z,1.02
2022-07-26T13:28:17.081Z,1.15
2022-07-26T13:30:44.995Z,0.90
2022-07-26T13:33:12.287Z,1.10
2022-07-26T13:35:42.263Z,1.00
2022-07-26T13:38:09.074Z,1.30
2022-07-26T13:40:36.098Z,1.10
2022-07-26T13:43:02.982Z,1.05
2022-07-26T13:45:29.905Z,1.10
2022-07-26T13:47:59.130Z,1.30
2022-07-26T13:50:27.791Z,1.00
2022-07-26T13:52:56.176Z,1.00
2022-07-26T13:55:23.277Z,1.10
2022-07-26T13:57:56.839Z,0.80
2022-07-26T14:00:26.264Z,0.95
2022-07-26T14:02:53.953Z,1.10
2022-07-26T14:05:21.141Z,0.90
2022-07-26T14:07:48.443Z,0.90
2022-07-26T14:10:15.304Z,0.82
2022-07-26T14:12:42.268Z,0.98
2022-07-26T14:15:12.989Z,0.88
2022-07-26T14:17:45.360Z,0.77
2022-07-26T14:20:12.289Z,0.95
2022-07-26T14:22:39.094Z,0.82
2022-07-26T14:25:07.051Z,0.90
2022-07-26T14:27:33.871Z,1.10
2022-07-26T14:30:00.732Z,0.90
2022-07-26T14:32:27.509Z,0.70
2022-07-26T14:34:54.171Z,0.80
2022-07-26T14:37:43.606Z,0.93
2022-07-26T14:40:08.385Z,1.10
2022-07-26T14:42:35.013Z,0.80
2022-07-26T14:45:01.767Z,0.90
2022-07-26T14:47:28.476Z,0.80
2022-07-26T14:49:55.107Z,0.90
2022-07-26T14:52:22.299Z,0.75
2022-07-26T14:54:49.016Z,0.90
2022-07-26T14:57:16.062Z,0.90
2022-07-26T14:59:42.970Z,1.13
2022-07-26T15:02:11.718Z,0.73
2022-07-26T15:04:38.574Z,0.82
2022-07-26T15:07:05.687Z,1.20
2022-07-26T15:09:33.162Z,0.80
2022-07-26T15:12:00.276Z,0.90
2022-07-26T15:14:27.024Z,1.00
2022-07-26T15:16:53.771Z,1.00
2022-07-26T15:19:25.367Z,0.82
2022-07-26T15:21:54.197Z,0.80
2022-07-26T15:24:24.329Z,0.90
2022-07-26T15:26:51.213Z,0.90
2022-07-26T15:29:17.911Z,0.95
2022-07-26T15:31:44.732Z,0.80
2022-07-26T15:34:11.913Z,0.90
2022-07-26T15:36:40.126Z,0.90
2022-07-26T15:39:17.172Z,0.88
2022-07-26T15:41:45.416Z,1.00
2022-07-26T15:44:12.832Z,0.90
2022-07-26T15:46:40.030Z,1.00
2022-07-26T15:49:07.603Z,1.00
2022-07-26T15:51:34.661Z,0.90
2022-07-26T15:54:02.522Z,0.75
2022-07-26T15:56:29.232Z,0.90
2022-07-26T15:58:56.040Z,0.93
2022-07-26T16:01:22.907Z,0.80
2022-07-26T16:03:49.781Z,0.90
2022-07-26T16:06:16.461Z,0.88
2022-07-26T16:09:05.849Z,0.73
2022-07-26T16:11:31.240Z,0.77
2022-07-26T16:14:01.784Z,0.63
2022-07-26T16:16:30.318Z,0.80
2022-07-26T16:18:57.514Z,0.70
2022-07-26T16:21:24.590Z,0.70
2022-07-26T16:23:51.560Z,0.70
2022-07-26T16:26:18.660Z,0.80
2022-07-26T16:28:45.454Z,1.00
2022-07-26T16:31:12.234Z,0.80
2022-07-26T16:33:45.875Z,0.73
2022-07-26T16:36:14.067Z,0.80
2022-07-26T16:38:40.785Z,0.77
2022-07-26T16:41:07.711Z,1.30
2022-07-26T16:43:35.246Z,0.80
2022-07-26T16:46:02.298Z,0.80
2022-07-26T16:48:29.055Z,0.88
2022-07-26T16:50:55.981Z,0.70
2022-07-26T16:53:23.038Z,0.80
2022-07-26T16:55:51.984Z,0.90
2022-07-26T16:58:19.530Z,0.80
2022-07-26T17:00:47.234Z,0.80
2022-07-26T17:03:15.650Z,0.70
2022-07-26T17:05:44.435Z,0.80
2022-07-26T17:08:11.255Z,0.90
2022-07-26T17:10:38.223Z,0.90
2022-07-26T17:13:04.989Z,0.75
2022-07-26T17:15:32.925Z,0.70
2022-07-26T17:17:59.894Z,0.88
2022-07-26T17:20:26.838Z,0.90
2022-07-26T17:22:53.987Z,0.90
2022-07-26T17:25:20.728Z,0.82
2022-07-26T17:27:47.647Z,0.80
2022-07-26T17:30:14.978Z,0.90
2022-07-26T17:32:41.888Z,1.00
2022-07-26T17:35:09.298Z,0.90
2022-07-26T17:37:36.831Z,0.90
2022-07-26T17:40:04.860Z,0.90
2022-07-26T17:42:34.986Z,1.10
2022-07-26T17:45:02.036Z,1.13
2022-07-26T17:47:30.526Z,0.90
2022-07-26T17:50:14.061Z,0.90
2022-07-26T17:52:46.529Z,0.90
2022-07-26T17:55:13.112Z,0.98
2022-07-26T17:57:39.968Z,1.00
2022-07-26T18:00:07.376Z,0.80
2022-07-26T18:02:34.001Z,0.80
2022-07-26T18:05:01.384Z,0.82
2022-07-26T18:07:28.132Z,1.00
2022-07-26T18:09:54.779Z,0.65
2022-07-26T18:12:21.526Z,0.80
2022-07-26T18:14:48.250Z,0.80
2022-07-26T18:17:15.169Z,0.82
2022-07-26T18:19:41.986Z,0.73
2022-07-26T18:22:08.953Z,0.75
2022-07-26T18:24:35.874Z,0.80
2022-07-26T18:27:03.006Z,0.88
2022-07-26T18:29:30.009Z,0.70
2022-07-26T18:32:00.151Z,0.90
2022-07-26T18:34:28.392Z,1.00
2022-07-26T18:36:55.052Z,0.52
2022-07-26T18:39:21.837Z,0.73
2022-07-26T18:41:48.610Z,0.70
2022-07-26T18:44:15.351Z,0.93
2022-07-26T18:46:42.029Z,0.90
2022-07-26T18:49:09.169Z,0.95
2022-07-26T18:51:43.047Z,1.00
2022-07-26T18:54:10.667Z,0.80
2022-07-26T18:56:37.434Z,0.80
2022-07-26T18:59:04.325Z,0.70
2022-07-26T19:01:31.107Z,0.90
2022-07-26T19:03:57.830Z,0.70
2022-07-26T19:06:24.663Z,0.93
2022-07-26T19:08:51.358Z,0.80
2022-07-26T19:11:18.067Z,0.85
2022-07-26T19:13:44.689Z,0.75
2022-07-26T19:16:11.587Z,0.63
2022-07-26T19:18:38.361Z,0.80
2022-07-26T19:21:05.260Z,0.90
2022-07-26T19:23:31.978Z,0.88
2022-07-26T19:25:59.001Z,1.00
2022-07-26T19:28:25.821Z,1.05
2022-07-26T19:30:52.556Z,0.82
2022-07-26T19:33:20.024Z,1.00
2022-07-26T19:35:47.007Z,0.68
2022-07-26T19:38:13.814Z,0.63
2022-07-26T19:40:40.615Z,1.00
2022-07-26T19:43:07.493Z,0.77
2022-07-26T19:45:34.495Z,0.82
2022-07-26T19:48:01.804Z,0.90
2022-07-26T19:50:28.499Z,0.90
2022-07-26T19:52:55.308Z,0.80
2022-07-26T19:55:22.680Z,0.85
2022-07-26T19:57:49.533Z,1.05
2022-07-26T20:00:18.227Z,0.93
2022-07-26T20:02:45.617Z,1.10
2022-07-26T20:05:13.202Z,1.05
2022-07-26T20:07:40.198Z,1.10
2022-07-26T20:10:07.808Z,1.10
2022-07-26T20:12:37.511Z,1.10
2022-07-26T20:15:06.128Z,0.98
2022-07-26T20:17:35.431Z,1.27
2022-07-26T20:20:05.641Z,0.90
2022-07-26T20:24:59.046Z,1.10
2022-07-26T20:27:26.197Z,1.05
2022-07-26T20:29:57.413Z,1.00
2022-07-26T20:32:27.224Z,0.93
2022-07-26T20:34:53.872Z,1.20
2022-07-26T20:37:20.568Z,1.25
2022-07-26T20:39:48.435Z,1.40
2022-07-26T20:42:21.602Z,1.30
2022-07-26T20:44:48.776Z,1.67
2022-07-26T20:47:16.047Z,1.35
2022-07-26T20:49:43.360Z,1.67
2022-07-26T20:52:10.479Z,1.80
2022-07-26T20:54:37.356Z,1.85
2022-07-26T20:57:04.661Z,1.77
2022-07-26T20:59:32.382Z,1.88
2022-07-26T21:01:59.211Z,2.20
2022-07-26T21:04:26.362Z,1.85
2022-07-26T21:06:53.327Z,2.13
2022-07-26T21:09:20.411Z,2.20
2022-07-26T21:11:47.370Z,2.45
2022-07-26T21:14:14.507Z,2.22
2022-07-26T21:16:41.266Z,2.13
2022-07-26T21:19:08.504Z,2.20
2022-07-26T21:21:37.041Z,2.15
2022-07-26T21:24:05.801Z,2.22
2022-07-26T21:26:32.755Z,2.00
2022-07-26T21:28:59.513Z,2.30
2022-07-26T21:31:26.890Z,2.42
2022-07-26T21:33:53.675Z,2.25
2022-07-26T21:36:21.489Z,2.08
2022-07-26T21:38:48.291Z,2.33
2022-07-26T21:41:15.177Z,2.00
2022-07-26T21:43:42.280Z,2.33
2022-07-26T21:46:12.692Z,1.80
2022-07-26T21:48:40.341Z,2.20
2022-07-26T21:51:07.714Z,2.42
2022-07-26T21:53:34.379Z,2.13
2022-07-26T21:56:01.096Z,1.98
2022-07-26T21:58:28.215Z,2.03
2022-07-26T22:01:03.488Z,2.35
2022-07-26T22:03:35.319Z,2.40
2022-07-26T22:06:02.379Z,2.53
2022-07-26T22:08:29.289Z,2.13
2022-07-26T22:10:56.075Z,2.63
2022-07-26T22:13:22.838Z,2.50
2022-07-26T22:15:49.962Z,2.28
2022-07-26T22:18:16.758Z,2.17
2022-07-26T22:20:44.113Z,2.45
2022-07-26T22:23:12.281Z,2.00
2022-07-26T22:25:40.574Z,2.47
2022-07-26T22:28:08.668Z,2.22
2022-07-26T22:30:35.835Z,2.28
2022-07-26T22:33:04.678Z,2.70
2022-07-26T22:35:35.982Z,2.65
2022-07-26T22:38:05.299Z,2.42
2022-07-26T22:40:32.967Z,2.88
2022-07-26T22:42:59.877Z,2.30
2022-07-26T22:45:27.424Z,2.17
2022-07-26T22:47:56.276Z,2.88
2022-07-26T22:50:24.860Z,2.63
2022-07-26T22:52:52.430Z,2.65
2022-07-26T22:55:19.584Z,2.75
2022-07-26T22:57:46.392Z,3.08
2022-07-26T23:00:15.958Z,2.80
2022-07-26T23:02:42.966Z,2.92
2022-07-26T23:05:11.440Z,2.70
2022-07-26T23:07:38.538Z,2.90
2022-07-26T23:10:07.893Z,2.70
2022-07-26T23:12:34.800Z,2.70
2022-07-26T23:15:01.444Z,2.75
2022-07-26T23:17:28.143Z,2.72
2022-07-26T23:19:54.835Z,2.38
2022-07-26T23:22:22.598Z,2.75
2022-07-26T23:24:49.475Z,2.88
2022-07-26T23:27:19.983Z,2.53
2022-07-26T23:29:49.020Z,2.97
2022-07-26T23:32:16.005Z,2.72
2022-07-26T23:34:43.109Z,3.17
2022-07-26T23:37:09.949Z,3.55
2022-07-26T23:39:36.918Z,3.45
2022-07-26T23:42:03.654Z,3.33
2022-07-26T23:44:33.623Z,3.30
2022-07-26T23:47:00.480Z,3.10
2022-07-26T23:49:27.387Z,2.50
2022-07-26T23:51:54.474Z,2.97
2022-07-26T23:54:21.166Z,2.72
2022-07-26T23:56:48.056Z,2.90
2022-07-26T23:59:15.383Z,2.90
